GCRR/ACE METAR and TAF weather

Enter ICAO airport designator
Station Type Date Time Source
GCRR METAR 2021/04/18 03:30 UTC NOAA

GCRR 180330Z AUTO 02010KT CAVOK 17/12 Q1018


Station Type Date Time Source
GCRR Decoded METAR 2021/04/18 03:30 UTC NOAA

Lanzarote / Aeropuerto, Spain (GCRR) 28-57N 013-36W 21M
Apr 17, 2021 - 11:30 PM EDT / 2021.04.18 0330 UTC
Wind: from the NNE (020 degrees) at 12 MPH (10 KT):0
Visibility: greater than 7 mile(s):0
Temperature: 62 F (17 C)
Dew Point: 53 F (12 C)
Relative Humidity: 72%
Pressure (altimeter): 30.06 in. Hg (1018 hPa)
ob: GCRR 180330Z AUTO 02010KT CAVOK 17/12 Q1018
cycle: 3

Station Type Date Time Source
GCRR TAF 2021/04/18 03:36 UTC NOAA

TAF GCRR 180200Z 1803/1903 02008KT 9999 SCT025 TX24/1814Z TN18/1806Z

Example: see airport list